Time;durP1;ratioP1;P1;durP2;ratioP2;P2;SDS_P1;SDS_P2;PMS_P1;PMS_P2;Temp;Humidity;BMP_temperature;BMP_pressure;BME280_temperature;BME280_humidity;BME280_pressure;Samples;Min_cycle;Max_cycle;Signal;HPM_P1;HPM_P2
2023/04/24 00:00:02;;;;;;;5.00;2.20;;;;;;;;;;4955049;28;20047;-62
2023/04/24 00:02:33;;;;;;;6.07;2.13;;;;;;;;;;4922772;28;20043;-62
2023/04/24 00:05:06;;;;;;;5.07;2.15;;;;;;;;;;4955752;28;20150;-62
2023/04/24 00:07:36;;;;;;;4.13;1.85;;;;;;;;;;4971447;28;20046;-63
2023/04/24 00:10:07;;;;;;;7.28;2.40;;;;;;;;;;4991731;28;20061;-63
2023/04/24 00:12:38;;;;;;;7.07;2.20;;;;;;;;;;4994200;28;20486;-63
2023/04/24 00:15:09;;;;;;;7.90;2.22;;;;;;;;;;5012947;28;20382;-63
2023/04/24 00:17:39;;;;;;;3.92;1.80;;;;;;;;;;5012867;28;20049;-63
2023/04/24 00:20:10;;;;;;;6.32;2.28;;;;;;;;;;5012787;28;20401;-63
2023/04/24 00:22:40;;;;;;;7.57;1.95;;;;;;;;;;5012645;28;20057;-63
2023/04/24 00:25:11;;;;;;;5.72;2.20;;;;;;;;;;4978513;28;20082;-64
2023/04/24 00:27:41;;;;;;;7.07;1.85;;;;;;;;;;4978154;28;20548;-62
2023/04/24 00:30:11;;;;;;;6.30;2.30;;;;;;;;;;4961947;28;20058;-62
2023/04/24 00:32:43;;;;;;;4.07;2.00;;;;;;;;;;4979258;28;20517;-64
2023/04/24 00:35:14;;;;;;;4.55;2.00;;;;;;;;;;5012911;28;20046;-63
2023/04/24 00:37:44;;;;;;;8.55;2.75;;;;;;;;;;4993359;28;20417;-62
2023/04/24 00:40:14;;;;;;;13.32;2.40;;;;;;;;;;4990141;28;20399;-62
2023/04/24 00:42:44;;;;;;;6.18;2.35;;;;;;;;;;4970816;28;20059;-62
2023/04/24 00:45:15;;;;;;;8.05;2.42;;;;;;;;;;4970752;28;20054;-62
2023/04/24 00:47:46;;;;;;;10.75;2.33;;;;;;;;;;4970608;28;20073;-62
2023/04/24 00:50:17;;;;;;;6.25;2.42;;;;;;;;;;4924084;28;20059;-62
2023/04/24 00:52:47;;;;;;;6.80;2.45;;;;;;;;;;4922763;28;20054;-61
2023/04/24 00:55:17;;;;;;;7.57;3.40;;;;;;;;;;4970669;28;20066;-64
2023/04/24 00:57:49;;;;;;;8.55;2.70;;;;;;;;;;4950902;29;20059;-64
2023/04/24 01:00:19;;;;;;;8.38;2.85;;;;;;;;;;4905192;29;20059;-62
2023/04/24 01:02:51;;;;;;;9.00;2.72;;;;;;;;;;4950912;29;20067;-62
2023/04/24 01:05:21;;;;;;;7.03;2.90;;;;;;;;;;4951181;29;20066;-63
2023/04/24 01:07:52;;;;;;;7.05;3.20;;;;;;;;;;4951194;29;20550;-63
2023/04/24 01:10:23;;;;;;;8.13;2.42;;;;;;;;;;4950977;29;20047;-62
2023/04/24 01:12:53;;;;;;;7.45;2.63;;;;;;;;;;4950772;28;20062;-62
2023/04/24 01:15:23;;;;;;;7.50;2.67;;;;;;;;;;4904386;29;20055;-63
2023/04/24 01:17:53;;;;;;;12.40;3.15;;;;;;;;;;4960497;28;20457;-62
2023/04/24 01:20:26;;;;;;;7.18;2.83;;;;;;;;;;4970175;28;20059;-63
2023/04/24 01:23:00;;;;;;;10.25;2.97;;;;;;;;;;4906712;28;20063;-62
2023/04/24 01:25:30;;;;;;;9.27;2.92;;;;;;;;;;4970327;28;20066;-64
2023/04/24 01:28:01;;;;;;;7.85;2.75;;;;;;;;;;4954241;28;20047;-62
2023/04/24 01:30:32;;;;;;;5.07;2.60;;;;;;;;;;4938109;28;20050;-62
2023/04/24 01:33:02;;;;;;;9.50;2.97;;;;;;;;;;4969729;28;20051;-63
2023/04/24 01:35:33;;;;;;;9.98;3.17;;;;;;;;;;4992395;28;20065;-62
2023/04/24 01:38:03;;;;;;;8.05;3.50;;;;;;;;;;4977454;28;20061;-63
2023/04/24 01:40:34;;;;;;;7.97;3.05;;;;;;;;;;4992768;28;20050;-62
2023/04/24 01:43:04;;;;;;;9.00;3.50;;;;;;;;;;5011563;28;20057;-65
2023/04/24 01:45:34;;;;;;;9.30;3.50;;;;;;;;;;4992891;28;20049;-62
2023/04/24 01:48:05;;;;;;;7.07;2.60;;;;;;;;;;4972936;28;20043;-63
2023/04/24 01:50:35;;;;;;;10.25;3.33;;;;;;;;;;4989123;28;20502;-62
2023/04/24 01:53:05;;;;;;;5.90;2.65;;;;;;;;;;4989156;28;20042;-62
2023/04/24 01:55:37;;;;;;;6.88;2.97;;;;;;;;;;4931021;29;20050;-62
2023/04/24 01:58:07;;;;;;;13.88;4.25;;;;;;;;;;4934075;29;20058;-65
2023/04/24 02:00:37;;;;;;;10.00;3.22;;;;;;;;;;4965433;28;20061;-62
2023/04/24 02:03:07;;;;;;;14.10;3.00;;;;;;;;;;4988886;28;20054;-62
2023/04/24 02:05:38;;;;;;;10.20;3.15;;;;;;;;;;4925479;28;20058;-62
2023/04/24 02:08:08;;;;;;;7.18;2.85;;;;;;;;;;4988771;28;20098;-63
2023/04/24 02:10:38;;;;;;;7.20;2.97;;;;;;;;;;4942251;28;20057;-62
2023/04/24 02:13:08;;;;;;;13.23;3.40;;;;;;;;;;4988551;28;20046;-62
2023/04/24 02:15:38;;;;;;;9.32;3.60;;;;;;;;;;4950199;28;20165;-62
2023/04/24 02:18:09;;;;;;;7.13;3.33;;;;;;;;;;4950224;28;20063;-62
2023/04/24 02:20:39;;;;;;;6.07;2.95;;;;;;;;;;4969410;28;20059;-62
2023/04/24 02:23:09;;;;;;;8.10;3.25;;;;;;;;;;4969082;28;20077;-62
2023/04/24 02:25:39;;;;;;;12.95;3.38;;;;;;;;;;4961474;28;20066;-62
2023/04/24 02:28:09;;;;;;;8.75;4.03;;;;;;;;;;4953885;28;20075;-62
2023/04/24 02:30:39;;;;;;;10.80;3.38;;;;;;;;;;4954184;28;20043;-63
2023/04/24 02:33:09;;;;;;;8.90;3.97;;;;;;;;;;4946421;28;20067;-62
2023/04/24 02:35:40;;;;;;;9.15;3.83;;;;;;;;;;4962734;28;20482;-62
2023/04/24 02:38:11;;;;;;;9.25;3.53;;;;;;;;;;4935752;29;20047;-63
2023/04/24 02:40:41;;;;;;;7.90;3.05;;;;;;;;;;4953987;29;20456;-65
2023/04/24 02:43:11;;;;;;;7.78;2.97;;;;;;;;;;4906150;29;20062;-64
2023/04/24 02:45:41;;;;;;;8.82;2.67;;;;;;;;;;4959758;28;20063;-62
2023/04/24 02:48:11;;;;;;;7.03;2.80;;;;;;;;;;4932433;29;20056;-63
2023/04/24 02:50:41;;;;;;;8.98;2.85;;;;;;;;;;4934440;29;20062;-63
2023/04/24 02:53:12;;;;;;;7.22;2.72;;;;;;;;;;4899713;29;20052;-64
2023/04/24 02:55:42;;;;;;;9.05;3.20;;;;;;;;;;4896237;29;20052;-64
2023/04/24 02:58:12;;;;;;;7.75;2.90;;;;;;;;;;4896664;29;20052;-63
2023/04/24 03:00:43;;;;;;;10.35;3.80;;;;;;;;;;4864804;29;20056;-63
2023/04/24 03:03:15;;;;;;;6.38;3.40;;;;;;;;;;4896281;29;20104;-63
2023/04/24 03:05:45;;;;;;;7.30;3.15;;;;;;;;;;4896278;29;20064;-63
2023/04/24 03:08:15;;;;;;;12.82;3.30;;;;;;;;;;4896733;29;20068;-63
2023/04/24 03:10:46;;;;;;;7.32;2.97;;;;;;;;;;4896337;29;20412;-63
2023/04/24 03:13:16;;;;;;;7.43;2.63;;;;;;;;;;4877306;29;20549;-64
2023/04/24 03:15:47;;;;;;;7.50;3.58;;;;;;;;;;4869711;29;20054;-63
2023/04/24 03:18:17;;;;;;;9.40;3.15;;;;;;;;;;4846567;29;20057;-62
2023/04/24 03:20:48;;;;;;;8.65;3.22;;;;;;;;;;4858456;29;20049;-63
2023/04/24 03:23:19;;;;;;;7.47;3.25;;;;;;;;;;4857560;29;20045;-62
2023/04/24 03:25:49;;;;;;;7.70;3.75;;;;;;;;;;4809808;29;20470;-63
2023/04/24 03:28:20;;;;;;;12.52;3.47;;;;;;;;;;4840036;29;20050;-62
2023/04/24 03:31:01;;;;;;;9.02;3.03;;;;;;;;;;4840373;29;20069;-63
2023/04/24 03:33:35;;;;;;;8.70;3.50;;;;;;;;;;4829199;29;20070;-64
2023/04/24 03:36:07;;;;;;;6.70;2.97;;;;;;;;;;4839854;29;20057;-63
2023/04/24 03:38:40;;;;;;;9.82;2.75;;;;;;;;;;4802693;29;20074;-63
2023/04/24 03:41:26;;;;;;;7.30;3.10;;;;;;;;;;4803687;29;20058;-62
2023/04/24 03:44:03;;;;;;;8.13;2.97;;;;;;;;;;4795191;29;20670;-63
2023/04/24 03:46:33;;;;;;;7.53;3.10;;;;;;;;;;4755565;29;20071;-62
2023/04/24 03:49:03;;;;;;;6.78;2.83;;;;;;;;;;4785473;29;20484;-64
2023/04/24 03:51:36;;;;;;;9.63;2.80;;;;;;;;;;4749496;30;20060;-63
2023/04/24 03:54:17;;;;;;;9.50;3.13;;;;;;;;;;4736438;30;20414;-63
2023/04/24 03:56:47;;;;;;;7.57;3.20;;;;;;;;;;4749615;30;20068;-63
2023/04/24 03:59:17;;;;;;;7.93;3.30;;;;;;;;;;4744207;30;20063;-62
2023/04/24 04:01:58;;;;;;;6.22;2.58;;;;;;;;;;4733185;30;20756;-62
2023/04/24 04:04:28;;;;;;;9.50;2.67;;;;;;;;;;4733132;30;20057;-64
2023/04/24 04:07:01;;;;;;;7.00;3.10;;;;;;;;;;4732088;30;20064;-63
2023/04/24 04:09:32;;;;;;;6.72;2.92;;;;;;;;;;4734408;30;20056;-62
2023/04/24 04:12:03;;;;;;;7.57;3.03;;;;;;;;;;4739003;30;20052;-62
2023/04/24 04:14:34;;;;;;;9.80;2.90;;;;;;;;;;4806519;29;20054;-65
2023/04/24 04:17:04;;;;;;;5.38;2.45;;;;;;;;;;4835742;29;20062;-63
2023/04/24 04:19:35;;;;;;;5.63;2.58;;;;;;;;;;4832702;29;20199;-63
2023/04/24 04:22:05;;;;;;;6.15;2.35;;;;;;;;;;4826755;29;20411;-63
2023/04/24 04:24:43;;;;;;;6.47;2.17;;;;;;;;;;4841120;29;20201;-64
2023/04/24 04:27:14;;;;;;;4.78;2.60;;;;;;;;;;4839247;29;20058;-62
2023/04/24 04:30:04;;;;;;;5.95;2.47;;;;;;;;;;4840390;29;20049;-63
2023/04/24 04:32:42;;;;;;;5.65;2.20;;;;;;;;;;4824725;29;20061;-63
2023/04/24 04:35:12;;;;;;;5.25;2.50;;;;;;;;;;4834848;29;20054;-62
2023/04/24 04:37:43;;;;;;;5.53;2.42;;;;;;;;;;4857348;29;20062;-63
2023/04/24 04:40:40;;;;;;;6.07;2.65;;;;;;;;;;4835569;29;20384;-62
2023/04/24 04:43:15;;;;;;;6.65;3.65;;;;;;;;;;4818926;29;20416;-63
2023/04/24 04:45:52;;;;;;;6.05;2.35;;;;;;;;;;4792452;29;20489;-62
2023/04/24 04:48:54;;;;;;;5.32;2.35;;;;;;;;;;4802416;29;20070;-63
2023/04/24 04:51:25;;;;;;;6.43;2.33;;;;;;;;;;4767249;30;20063;-63
2023/04/24 04:53:55;;;;;;;6.03;1.88;;;;;;;;;;4784045;29;20528;-63
2023/04/24 04:56:26;;;;;;;5.18;2.30;;;;;;;;;;4777493;29;20059;-63
2023/04/24 04:58:58;;;;;;;8.38;2.30;;;;;;;;;;4766285;29;20541;-62
2023/04/24 05:01:29;;;;;;;6.18;1.90;;;;;;;;;;4801668;29;20058;-62
2023/04/24 05:03:59;;;;;;;5.57;2.20;;;;;;;;;;4797389;29;20055;-63
2023/04/24 05:06:30;;;;;;;5.25;1.85;;;;;;;;;;4801730;29;20139;-62
2023/04/24 05:09:03;;;;;;;6.20;2.10;;;;;;;;;;4783703;30;20051;-62
2023/04/24 05:11:46;;;;;;;6.00;2.40;;;;;;;;;;4738662;30;20132;-62
2023/04/24 05:14:17;;;;;;;4.35;2.00;;;;;;;;;;4761241;30;20060;-64
2023/04/24 05:16:48;;;;;;;9.57;3.10;;;;;;;;;;4776062;29;20556;-62
2023/04/24 05:19:21;;;;;;;3.97;2.00;;;;;;;;;;4776539;29;20066;-62
2023/04/24 05:21:51;;;;;;;4.43;2.08;;;;;;;;;;4779495;30;20063;-64
2023/04/24 05:24:22;;;;;;;3.92;1.98;;;;;;;;;;4748230;30;20471;-62
2023/04/24 05:27:11;;;;;;;4.05;1.65;;;;;;;;;;4783323;29;20078;-62
2023/04/24 05:29:42;;;;;;;5.60;1.80;;;;;;;;;;4752349;30;20060;-62
2023/04/24 05:32:13;;;;;;;5.97;1.88;;;;;;;;;;4748748;30;20819;-62
2023/04/24 05:34:43;;;;;;;5.30;1.80;;;;;;;;;;4730023;30;20057;-62
2023/04/24 05:37:13;;;;;;;3.88;1.58;;;;;;;;;;4733003;30;20668;-63
2023/04/24 05:39:44;;;;;;;8.43;1.70;;;;;;;;;;4765522;30;20056;-66
2023/04/24 05:42:14;;;;;;;4.35;1.70;;;;;;;;;;4770374;29;20067;-63
2023/04/24 05:44:45;;;;;;;3.10;1.60;;;;;;;;;;4767401;29;20077;-62
2023/04/24 05:47:15;;;;;;;4.07;2.20;;;;;;;;;;4765512;30;20062;-62
2023/04/24 05:49:46;;;;;;;4.03;1.83;;;;;;;;;;4783140;30;20457;-62
2023/04/24 05:52:16;;;;;;;5.47;2.13;;;;;;;;;;4769029;30;20052;-62
2023/04/24 05:54:46;;;;;;;4.13;1.90;;;;;;;;;;4777922;29;20508;-63
2023/04/24 05:57:21;;;;;;;3.45;1.58;;;;;;;;;;4793054;29;20059;-63
2023/04/24 05:59:59;;;;;;;5.20;1.73;;;;;;;;;;4787825;29;20055;-62
2023/04/24 06:02:32;;;;;;;5.72;1.95;;;;;;;;;;4768624;30;20058;-62
2023/04/24 06:05:02;;;;;;;5.88;2.15;;;;;;;;;;4797292;29;20065;-63
2023/04/24 06:07:33;;;;;;;3.05;1.45;;;;;;;;;;4821398;29;20180;-63
2023/04/24 06:10:06;;;;;;;4.03;1.60;;;;;;;;;;4845199;29;20057;-62
2023/04/24 06:12:41;;;;;;;5.82;1.90;;;;;;;;;;4819268;29;20054;-63
2023/04/24 06:15:21;;;;;;;6.93;2.13;;;;;;;;;;4758766;29;20418;-62
2023/04/24 06:17:58;;;;;;;2.95;1.38;;;;;;;;;;4783240;29;20068;-62
2023/04/24 06:20:28;;;;;;;4.05;1.60;;;;;;;;;;4775040;29;20183;-63
2023/04/24 06:22:58;;;;;;;3.80;1.60;;;;;;;;;;4801019;29;20058;-62
2023/04/24 06:25:28;;;;;;;3.72;1.85;;;;;;;;;;4798879;29;20519;-62
2023/04/24 06:27:58;;;;;;;5.00;1.63;;;;;;;;;;4819400;29;20570;-63
2023/04/24 06:30:30;;;;;;;5.22;1.80;;;;;;;;;;4761238;30;20487;-63
2023/04/24 06:33:01;;;;;;;3.60;1.70;;;;;;;;;;4764986;30;20077;-62
2023/04/24 06:35:47;;;;;;;3.42;1.42;;;;;;;;;;4794029;29;20590;-63
2023/04/24 06:38:17;;;;;;;7.45;1.50;;;;;;;;;;4785666;29;20659;-62
2023/04/24 06:40:47;;;;;;;3.85;1.50;;;;;;;;;;4778197;29;20051;-62
2023/04/24 06:43:17;;;;;;;3.67;1.55;;;;;;;;;;4800132;29;20081;-62
2023/04/24 06:45:47;;;;;;;9.15;2.63;;;;;;;;;;4801021;29;20071;-62
2023/04/24 06:48:17;;;;;;;4.38;1.95;;;;;;;;;;4805643;29;20054;-62
2023/04/24 06:50:47;;;;;;;4.55;1.50;;;;;;;;;;4862283;29;20060;-62
2023/04/24 06:53:18;;;;;;;4.20;1.40;;;;;;;;;;4874453;29;20065;-62
2023/04/24 06:55:48;;;;;;;4.55;2.03;;;;;;;;;;4858624;29;20067;-65
2023/04/24 06:58:18;;;;;;;4.05;1.70;;;;;;;;;;4847024;29;20053;-63
2023/04/24 07:00:48;;;;;;;5.50;2.10;;;;;;;;;;4877569;29;20064;-63
2023/04/24 07:03:18;;;;;;;6.68;2.10;;;;;;;;;;4874163;29;20411;-63
2023/04/24 07:05:49;;;;;;;6.50;2.08;;;;;;;;;;4874192;29;20061;-63
2023/04/24 07:08:22;;;;;;;5.55;1.80;;;;;;;;;;4896402;29;20068;-64
2023/04/24 07:10:52;;;;;;;5.15;1.75;;;;;;;;;;4911782;29;20068;-62
2023/04/24 07:13:23;;;;;;;6.55;1.80;;;;;;;;;;4913822;29;20047;-62
2023/04/24 07:15:55;;;;;;;4.63;1.88;;;;;;;;;;4934100;29;20056;-67
2023/04/24 07:18:26;;;;;;;4.90;1.80;;;;;;;;;;4871229;29;20052;-64
2023/04/24 07:20:56;;;;;;;4.78;1.77;;;;;;;;;;4933941;29;20098;-67
2023/04/24 07:23:26;;;;;;;4.15;1.95;;;;;;;;;;4934103;29;20400;-63
2023/04/24 07:25:56;;;;;;;7.90;2.15;;;;;;;;;;4943484;28;20067;-63
2023/04/24 07:28:26;;;;;;;9.60;2.40;;;;;;;;;;4953264;28;20059;-62
2023/04/24 07:30:56;;;;;;;4.10;1.80;;;;;;;;;;4890984;29;20074;-65
2023/04/24 07:33:26;;;;;;;5.45;2.30;;;;;;;;;;4952923;29;20090;-63
2023/04/24 07:35:57;;;;;;;7.85;2.05;;;;;;;;;;4922099;29;20152;-63
2023/04/24 07:38:29;;;;;;;8.68;2.50;;;;;;;;;;4905034;28;20124;-63
2023/04/24 07:40:59;;;;;;;;;;;;;;;;;;4973594;28;20050;-63
2023/04/24 07:43:29;;;;;;;4.97;1.83;;;;;;;;;;4944128;28;19921;-66
2023/04/24 07:46:00;;;;;;;5.28;2.10;;;;;;;;;;4943515;28;20050;-62
2023/04/24 07:48:30;;;;;;;7.38;2.30;;;;;;;;;;4975070;28;20426;-63
2023/04/24 07:51:00;;;;;;;7.40;2.28;;;;;;;;;;5012348;28;20053;-63
2023/04/24 07:53:30;;;;;;;6.78;2.10;;;;;;;;;;5033238;28;20041;-63
2023/04/24 07:56:00;;;;;;;5.43;2.20;;;;;;;;;;5033004;28;20049;-62
2023/04/24 07:58:30;;;;;;;9.48;3.65;;;;;;;;;;5033064;28;20052;-63
2023/04/24 08:01:00;;;;;;;6.65;2.67;;;;;;;;;;5033495;28;20050;-63
2023/04/24 08:03:31;;;;;;;7.57;3.08;;;;;;;;;;5015681;28;20038;-63
2023/04/24 08:06:01;;;;;;;5.20;2.00;;;;;;;;;;4999164;28;20057;-64
2023/04/24 08:08:32;;;;;;;8.00;2.50;;;;;;;;;;5032870;28;20045;-64
2023/04/24 08:11:02;;;;;;;8.73;2.80;;;;;;;;;;5032914;28;20045;-63
2023/04/24 08:13:32;;;;;;;9.23;3.15;;;;;;;;;;4997714;28;20540;-64
2023/04/24 08:16:02;;;;;;;9.35;3.15;;;;;;;;;;4997631;28;20049;-62
2023/04/24 08:18:33;;;;;;;8.05;2.60;;;;;;;;;;5032839;28;20049;-63
2023/04/24 08:21:03;;;;;;;7.22;2.42;;;;;;;;;;4997689;28;20061;-63
2023/04/24 08:23:33;;;;;;;6.97;2.60;;;;;;;;;;4981511;28;20520;-63
2023/04/24 08:26:03;;;;;;;6.82;2.30;;;;;;;;;;5032752;28;20041;-63
2023/04/24 08:28:34;;;;;;;7.93;2.78;;;;;;;;;;5032253;28;20041;-63
2023/04/24 08:31:05;;;;;;;9.02;3.20;;;;;;;;;;5013216;28;20501;-63
2023/04/24 08:33:35;;;;;;;11.95;4.03;;;;;;;;;;5013717;28;20045;-63
2023/04/24 08:36:07;;;;;;;7.53;3.35;;;;;;;;;;5032339;28;20049;-63
2023/04/24 08:38:38;;;;;;;9.35;3.25;;;;;;;;;;5032180;28;20490;-63
2023/04/24 08:41:11;;;;;;;7.88;2.90;;;;;;;;;;5032193;28;20049;-63
2023/04/24 08:43:42;;;;;;;9.93;2.70;;;;;;;;;;5013925;28;20057;-63
2023/04/24 08:46:13;;;;;;;6.85;2.50;;;;;;;;;;5032247;28;20041;-63
2023/04/24 08:48:44;;;;;;;7.00;2.33;;;;;;;;;;4949758;28;20061;-63
2023/04/24 08:51:14;;;;;;;6.22;2.92;;;;;;;;;;5032138;28;20045;-65
2023/04/24 08:53:48;;;;;;;5.90;2.83;;;;;;;;;;4998688;28;20064;-63
2023/04/24 08:56:19;;;;;;;7.43;2.30;;;;;;;;;;5031924;28;20516;-63
2023/04/24 08:58:54;;;;;;;4.68;2.05;;;;;;;;;;4980904;28;20493;-63
2023/04/24 09:01:26;;;;;;;7.35;2.13;;;;;;;;;;5024274;28;20061;-62
2023/04/24 09:03:57;;;;;;;7.35;2.15;;;;;;;;;;4997039;28;20049;-63
2023/04/24 09:06:28;;;;;;;7.28;2.30;;;;;;;;;;4997082;28;20053;-64
2023/04/24 09:09:01;;;;;;;6.95;3.03;;;;;;;;;;5031726;28;20046;-63
2023/04/24 09:11:35;;;;;;;8.80;3.35;;;;;;;;;;5031885;28;20519;-63
2023/04/24 09:14:06;;;;;;;9.73;2.58;;;;;;;;;;5031753;28;20037;-63
2023/04/24 09:16:37;;;;;;;6.85;2.60;;;;;;;;;;5013177;28;20050;-63
2023/04/24 09:19:07;;;;;;;8.10;2.92;;;;;;;;;;5031507;28;20048;-63
2023/04/24 09:21:37;;;;;;;6.13;2.92;;;;;;;;;;5029283;28;20065;-64
2023/04/24 09:24:14;;;;;;;8.63;2.65;;;;;;;;;;5028879;28;20056;-63
2023/04/24 09:26:45;;;;;;;7.78;3.25;;;;;;;;;;5012934;28;20053;-62
2023/04/24 09:29:18;;;;;;;5.30;2.40;;;;;;;;;;5012474;28;20060;-63
2023/04/24 09:31:48;;;;;;;5.85;2.30;;;;;;;;;;5009279;28;20054;-63
2023/04/24 09:34:26;;;;;;;6.88;2.00;;;;;;;;;;4994830;28;20050;-63
2023/04/24 09:36:56;;;;;;;7.25;2.50;;;;;;;;;;5028812;28;20064;-63
2023/04/24 09:39:26;;;;;;;4.97;2.45;;;;;;;;;;5028689;28;20399;-63
2023/04/24 09:41:57;;;;;;;4.50;1.75;;;;;;;;;;5028878;28;20056;-63
2023/04/24 09:44:28;;;;;;;5.65;2.42;;;;;;;;;;5011882;28;20421;-63
2023/04/24 09:47:00;;;;;;;5.63;2.25;;;;;;;;;;4996119;28;20046;-62
2023/04/24 09:49:35;;;;;;;8.57;2.25;;;;;;;;;;5028423;28;20498;-63
2023/04/24 09:52:07;;;;;;;5.22;1.90;;;;;;;;;;5028820;28;20505;-62
2023/04/24 09:54:38;;;;;;;5.50;2.63;;;;;;;;;;5008690;28;20374;-62
2023/04/24 09:57:11;;;;;;;6.20;1.88;;;;;;;;;;4994455;28;20046;-62
2023/04/24 09:59:46;;;;;;;6.55;2.10;;;;;;;;;;4988643;28;20129;-63
2023/04/24 10:02:21;;;;;;;8.85;2.13;;;;;;;;;;4909931;28;20054;-64
2023/04/24 10:04:59;;;;;;;7.00;2.10;;;;;;;;;;4989123;28;20118;-62
2023/04/24 10:07:33;;;;;;;7.72;2.22;;;;;;;;;;4956517;28;20069;-62
2023/04/24 10:10:04;;;;;;;6.43;2.60;;;;;;;;;;4989149;28;20046;-62
2023/04/24 10:12:34;;;;;;;6.63;2.58;;;;;;;;;;4972551;28;20050;-62
2023/04/24 10:15:05;;;;;;;6.85;3.05;;;;;;;;;;4988756;28;20430;-63
2023/04/24 10:17:37;;;;;;;9.27;2.92;;;;;;;;;;4910912;28;20049;-63
2023/04/24 10:20:09;;;;;;;8.65;3.22;;;;;;;;;;4989066;28;20057;-62
2023/04/24 10:22:41;;;;;;;7.40;3.22;;;;;;;;;;4988680;28;20046;-63
2023/04/24 10:25:12;;;;;;;7.80;2.72;;;;;;;;;;4988828;28;20054;-62
2023/04/24 10:27:43;;;;;;;6.28;2.63;;;;;;;;;;4973428;28;20057;-64
2023/04/24 10:30:13;;;;;;;8.80;2.72;;;;;;;;;;4924669;28;20054;-62
2023/04/24 10:32:46;;;;;;;5.97;2.72;;;;;;;;;;4988964;28;20061;-63
2023/04/24 10:35:19;;;;;;;7.63;3.00;;;;;;;;;;4972635;28;20085;-63
2023/04/24 10:38:08;;;;;;;13.07;4.35;;;;;;;;;;5017775;28;20057;-65
2023/04/24 10:40:38;;;;;;;13.70;5.50;;;;;;;;;;5031005;28;20061;-62
2023/04/24 10:43:12;;;;;;;14.25;5.40;;;;;;;;;;5028819;28;20505;-62
2023/04/24 10:46:01;;;;;;;17.75;6.40;;;;;;;;;;5030933;28;20045;-62
2023/04/24 10:48:32;;;;;;;17.73;6.53;;;;;;;;;;4999755;28;20064;-62
2023/04/24 10:51:03;;;;;;;17.98;7.43;;;;;;;;;;5034668;28;20042;-63
2023/04/24 10:53:35;;;;;;;12.80;6.40;;;;;;;;;;4979697;28;20421;-62
2023/04/24 10:56:05;;;;;;;;;;;;;;;;;;4984493;28;20052;-62
2023/04/24 10:58:49;;;;;;;13.25;4.85;;;;;;;;;;5032169;28;19921;-62
2023/04/24 11:01:32;;;;;;;9.73;4.88;;;;;;;;;;5034397;28;20065;-63
2023/04/24 11:04:04;;;;;;;10.48;4.90;;;;;;;;;;5001405;28;20443;-63
2023/04/24 11:06:36;;;;;;;11.40;5.13;;;;;;;;;;5034168;28;20049;-62
2023/04/24 11:09:12;;;;;;;17.38;5.68;;;;;;;;;;5034101;28;20041;-64
2023/04/24 11:11:47;;;;;;;11.10;5.15;;;;;;;;;;5017124;28;20041;-65
2023/04/24 11:14:17;;;;;;;10.38;5.10;;;;;;;;;;5033779;28;20037;-63
2023/04/24 11:16:55;;;;;;;9.35;5.20;;;;;;;;;;4991832;28;20055;-62
2023/04/24 11:19:26;;;;;;;13.05;5.40;;;;;;;;;;4906744;28;20056;-63
2023/04/24 11:22:01;;;;;;;11.57;5.13;;;;;;;;;;4953140;28;20059;-63
2023/04/24 11:24:39;;;;;;;14.48;4.70;;;;;;;;;;4953156;28;20062;-66
2023/04/24 11:27:22;;;;;;;8.65;4.07;;;;;;;;;;4938489;28;20062;-62
2023/04/24 11:29:59;;;;;;;7.80;4.32;;;;;;;;;;4920936;28;20586;-64
2023/04/24 11:32:33;;;;;;;10.93;4.55;;;;;;;;;;4965108;28;20635;-63
2023/04/24 11:35:18;;;;;;;7.88;4.20;;;;;;;;;;4924796;28;20499;-62
2023/04/24 11:37:50;;;;;;;9.05;4.18;;;;;;;;;;4972423;28;20065;-63
2023/04/24 11:40:25;;;;;;;9.02;4.22;;;;;;;;;;4956003;28;20054;-63
2023/04/24 11:42:56;;;;;;;9.82;4.47;;;;;;;;;;4972097;28;20498;-63
2023/04/24 11:45:28;;;;;;;9.40;3.83;;;;;;;;;;4972158;28;20054;-62
2023/04/24 11:48:00;;;;;;;8.77;3.05;;;;;;;;;;4955722;28;20061;-64
2023/04/24 11:50:30;;;;;;;8.80;3.70;;;;;;;;;;4972087;28;20396;-62
2023/04/24 11:53:01;;;;;;;11.85;4.40;;;;;;;;;;4971993;28;20059;-63
2023/04/24 11:55:31;;;;;;;11.68;5.07;;;;;;;;;;4960018;28;20384;-63
2023/04/24 11:58:01;;;;;;;11.82;4.93;;;;;;;;;;5025673;28;20378;-64
2023/04/24 12:00:36;;;;;;;13.57;7.50;;;;;;;;;;5047071;28;20061;-63
2023/04/24 12:03:11;;;;;;;8.90;4.72;;;;;;;;;;5032547;28;20052;-63
2023/04/24 12:05:42;;;;;;;15.32;7.03;;;;;;;;;;4997930;28;20060;-63
2023/04/24 12:08:28;;;;;;;16.65;6.45;;;;;;;;;;5032647;28;20049;-63
2023/04/24 12:11:00;;;;;;;8.50;3.90;;;;;;;;;;5014717;28;20053;-62
2023/04/24 12:13:31;;;;;;;15.02;5.40;;;;;;;;;;5032570;28;20398;-63
2023/04/24 12:16:07;;;;;;;13.82;4.18;;;;;;;;;;4997837;28;20112;-64
2023/04/24 12:18:43;;;;;;;5.95;3.17;;;;;;;;;;5015077;28;20101;-64
2023/04/24 12:21:18;;;;;;;5.90;2.50;;;;;;;;;;5014923;28;20064;-62
2023/04/24 12:23:50;;;;;;;6.05;2.60;;;;;;;;;;5032462;28;20045;-62
2023/04/24 12:26:22;;;;;;;5.10;2.75;;;;;;;;;;5030278;28;20402;-65
2023/04/24 12:28:52;;;;;;;4.90;2.30;;;;;;;;;;5014071;28;20053;-62
2023/04/24 12:31:22;;;;;;;5.03;2.00;;;;;;;;;;5014142;28;20061;-62
2023/04/24 12:33:52;;;;;;;6.70;1.92;;;;;;;;;;5032185;28;20037;-62
2023/04/24 12:36:22;;;;;;;5.85;2.03;;;;;;;;;;5032029;28;20045;-62
2023/04/24 12:38:53;;;;;;;4.15;1.75;;;;;;;;;;5032512;28;20053;-62
2023/04/24 12:41:24;;;;;;;3.30;1.67;;;;;;;;;;5032068;28;20056;-62
2023/04/24 12:43:55;;;;;;;3.47;1.50;;;;;;;;;;5013752;28;20042;-63
2023/04/24 12:46:25;;;;;;;2.80;1.65;;;;;;;;;;4980969;28;20049;-64
2023/04/24 12:48:55;;;;;;;2.85;1.33;;;;;;;;;;5029512;28;20053;-62
2023/04/24 12:51:25;;;;;;;4.13;2.00;;;;;;;;;;5029523;28;20057;-62
2023/04/24 12:53:55;;;;;;;3.22;1.75;;;;;;;;;;5013060;28;20437;-62
2023/04/24 12:56:25;;;;;;;3.35;1.75;;;;;;;;;;5029461;28;20049;-62
2023/04/24 12:58:55;;;;;;;6.40;1.73;;;;;;;;;;5029503;28;20536;-63
2023/04/24 13:01:26;;;;;;;3.60;1.80;;;;;;;;;;5029111;28;20065;-62
2023/04/24 13:03:56;;;;;;;4.10;1.70;;;;;;;;;;5029513;28;20057;-63
2023/04/24 13:06:27;;;;;;;3.97;2.03;;;;;;;;;;4996440;28;20461;-62
2023/04/24 13:08:57;;;;;;;3.95;1.70;;;;;;;;;;5013142;28;20069;-62
2023/04/24 13:11:27;;;;;;;3.83;1.80;;;;;;;;;;5029130;28;20141;-62
2023/04/24 13:13:57;;;;;;;3.83;1.50;;;;;;;;;;5029204;28;20065;-62
2023/04/24 13:16:27;;;;;;;4.82;1.85;;;;;;;;;;5029129;28;20127;-61
2023/04/24 13:18:57;;;;;;;3.40;1.40;;;;;;;;;;5029354;28;20056;-62
2023/04/24 13:21:27;;;;;;;5.35;2.00;;;;;;;;;;4941424;28;20054;-62
2023/04/24 13:23:57;;;;;;;3.83;1.90;;;;;;;;;;4989741;28;20066;-62
2023/04/24 13:26:27;;;;;;;3.13;1.90;;;;;;;;;;4973002;28;20050;-62
2023/04/24 13:28:57;;;;;;;2.88;1.38;;;;;;;;;;4989500;28;20491;-62
2023/04/24 13:31:28;;;;;;;2.95;1.27;;;;;;;;;;4989567;28;20773;-63
2023/04/24 13:33:58;;;;;;;3.22;1.58;;;;;;;;;;4989186;28;20430;-63
2023/04/24 13:36:27;;;;;;;2.95;1.50;;;;;;;;;;4957066;28;20061;-62
2023/04/24 13:38:58;;;;;;;5.18;1.70;;;;;;;;;;4989375;28;20046;-62
2023/04/24 13:41:28;;;;;;;4.25;1.48;;;;;;;;;;4956365;28;20065;-62
2023/04/24 13:43:58;;;;;;;2.75;1.45;;;;;;;;;;4989759;28;20051;-61
2023/04/24 13:46:29;;;;;;;3.22;1.45;;;;;;;;;;4988998;28;20054;-62
2023/04/24 13:48:59;;;;;;;3.55;1.40;;;;;;;;;;4941142;28;20059;-62
2023/04/24 13:51:30;;;;;;;3.10;1.40;;;;;;;;;;4990661;28;20062;-63
2023/04/24 13:54:00;;;;;;;2.78;1.10;;;;;;;;;;4996271;28;20080;-60
2023/04/24 13:56:30;;;;;;;6.32;1.55;;;;;;;;;;5012941;28;20073;-63
2023/04/24 13:59:00;;;;;;;3.28;1.50;;;;;;;;;;4996841;28;20399;-61
2023/04/24 14:01:31;;;;;;;9.35;3.40;;;;;;;;;;5012935;28;20041;-62
2023/04/24 14:04:01;;;;;;;4.57;1.85;;;;;;;;;;5030699;28;20053;-61
2023/04/24 14:06:31;;;;;;;3.03;1.40;;;;;;;;;;5012881;28;20061;-62
2023/04/24 14:09:02;;;;;;;2.97;1.27;;;;;;;;;;5030662;28;20037;-62
2023/04/24 14:11:33;;;;;;;3.17;1.73;;;;;;;;;;5012600;28;20064;-62
2023/04/24 14:14:04;;;;;;;3.70;1.77;;;;;;;;;;5030679;28;20045;-62
2023/04/24 14:16:34;;;;;;;4.63;1.58;;;;;;;;;;5012171;28;20057;-63
2023/04/24 14:19:06;;;;;;;6.47;1.40;;;;;;;;;;4995867;28;20060;-61
2023/04/24 14:21:36;;;;;;;3.20;1.70;;;;;;;;;;4995314;28;20057;-62
2023/04/24 14:24:06;;;;;;;2.42;1.30;;;;;;;;;;4985858;28;20061;-62
2023/04/24 14:26:36;;;;;;;3.60;1.70;;;;;;;;;;5000077;28;20061;-62
2023/04/24 14:29:06;;;;;;;3.35;1.50;;;;;;;;;;5033517;28;20397;-62
2023/04/24 14:31:43;;;;;;;4.10;1.50;;;;;;;;;;5032011;28;20045;-63
2023/04/24 14:34:15;;;;;;;3.63;1.60;;;;;;;;;;5032361;28;20060;-62
2023/04/24 14:36:45;;;;;;;2.20;1.52;;;;;;;;;;4999472;28;20056;-63
2023/04/24 14:39:16;;;;;;;4.93;2.00;;;;;;;;;;4999499;28;20132;-63
2023/04/24 14:41:46;;;;;;;2.85;1.38;;;;;;;;;;5032054;28;20477;-63
2023/04/24 14:44:16;;;;;;;3.95;1.38;;;;;;;;;;4983175;28;20056;-62
2023/04/24 14:46:46;;;;;;;5.07;1.50;;;;;;;;;;4982912;28;20068;-63
2023/04/24 14:49:16;;;;;;;3.28;1.25;;;;;;;;;;4983335;28;20057;-63
2023/04/24 14:51:46;;;;;;;3.47;1.50;;;;;;;;;;4982927;28;20072;-66
2023/04/24 14:54:16;;;;;;;2.53;1.20;;;;;;;;;;4982766;28;20064;-63
2023/04/24 14:56:46;;;;;;;2.83;1.25;;;;;;;;;;4982499;28;20147;-62
2023/04/24 14:59:16;;;;;;;4.18;1.23;;;;;;;;;;4982663;28;20049;-63
2023/04/24 15:01:46;;;;;;;2.53;1.23;;;;;;;;;;4990582;28;20528;-62
2023/04/24 15:04:16;;;;;;;4.25;1.13;;;;;;;;;;4962923;28;20073;-65
2023/04/24 15:06:46;;;;;;;3.15;1.35;;;;;;;;;;5011914;28;20053;-63
2023/04/24 15:09:16;;;;;;;3.50;1.20;;;;;;;;;;5021234;28;20056;-63